Time;durP1;ratioP1;P1;durP2;ratioP2;P2;SDS_P1;SDS_P2;PMS_P1;PMS_P2;Temp;Humidity;BMP_temperature;BMP_pressure;BME280_temperature;BME280_humidity;BME280_pressure;Samples;Min_cycle;Max_cycle;Signal;HPM_P1;HPM_P2
2023/08/05 00:01:03;;;;;;;4.20;3.83;;;18.00;99.90;;;;;;5061056;28;20672;-60
2023/08/05 00:03:28;;;;;;;4.13;3.73;;;17.90;99.90;;;;;;5078934;28;20227;-60
2023/08/05 00:05:54;;;;;;;4.37;3.27;;;17.80;99.90;;;;;;5077756;28;20193;-61
2023/08/05 00:08:19;;;;;;;3.60;3.17;;;17.70;99.90;;;;;;5068811;28;20963;-62
2023/08/05 00:10:46;;;;;;;4.17;3.10;;;17.60;99.90;;;;;;5081035;28;20192;-60
2023/08/05 00:13:12;;;;;;;3.00;2.70;;;17.60;99.90;;;;;;5073004;28;20201;-60
2023/08/05 00:15:38;;;;;;;5.30;3.13;;;17.60;99.90;;;;;;5080933;28;20185;-59
2023/08/05 00:18:04;;;;;;;3.63;3.33;;;17.60;99.90;;;;;;5079678;28;20213;-59
2023/08/05 00:20:29;;;;;;;6.03;3.20;;;17.60;99.90;;;;;;5063304;28;20280;-59
2023/08/05 00:22:55;;;;;;;5.00;3.43;;;17.60;99.90;;;;;;5078043;28;20208;-60
2023/08/05 00:25:21;;;;;;;5.60;3.30;;;17.60;99.90;;;;;;5061684;28;20198;-60
2023/08/05 00:27:47;;;;;;;3.90;2.93;;;17.70;99.90;;;;;;5078585;28;20222;-59
2023/08/05 00:30:12;;;;;;;4.93;3.07;;;17.70;99.90;;;;;;5072767;28;20190;-59
2023/08/05 00:32:38;;;;;;;4.10;2.97;;;17.80;99.90;;;;;;5061107;28;20195;-60
2023/08/05 00:35:05;;;;;;;2.97;2.77;;;17.80;99.90;;;;;;5061399;28;20215;-59
2023/08/05 00:37:31;;;;;;;6.10;2.97;;;17.80;99.90;;;;;;5079322;28;20534;-60
2023/08/05 00:39:57;;;;;;;6.10;3.43;;;17.80;99.90;;;;;;5079648;28;20193;-60
2023/08/05 00:42:23;;;;;;;6.20;4.77;;;17.70;99.90;;;;;;5078037;28;20726;-60
2023/08/05 00:44:48;;;;;;;5.87;3.57;;;17.60;99.90;;;;;;5061434;28;20254;-60
2023/08/05 00:47:17;;;;;;;3.60;3.30;;;17.60;99.90;;;;;;5061407;28;20276;-60
2023/08/05 00:49:43;;;;;;;2.70;2.50;;;17.50;99.90;;;;;;5055444;28;20728;-62
2023/08/05 00:52:09;;;;;;;3.17;2.70;;;17.60;99.90;;;;;;5055007;28;20931;-58
2023/08/05 00:54:35;;;;;;;3.97;2.50;;;17.60;99.90;;;;;;5072552;28;20222;-63
2023/08/05 00:57:01;;;;;;;3.57;3.13;;;17.60;99.90;;;;;;5074140;28;20204;-58
2023/08/05 00:59:27;;;;;;;3.27;2.97;;;17.50;99.90;;;;;;5081174;28;20205;-60
2023/08/05 01:01:52;;;;;;;4.33;2.80;;;17.30;99.90;;;;;;5062504;28;20230;-57
2023/08/05 01:04:18;;;;;;;5.00;3.33;;;17.20;99.90;;;;;;5061681;28;20316;-62
2023/08/05 01:06:45;;;;;;;5.07;2.87;;;17.30;99.90;;;;;;5079037;28;20203;-62
2023/08/05 01:09:10;;;;;;;3.33;2.77;;;17.30;99.90;;;;;;5071951;28;20197;-62
2023/08/05 01:11:36;;;;;;;4.33;2.53;;;17.30;99.90;;;;;;5061710;28;20254;-62
2023/08/05 01:14:02;;;;;;;3.87;2.33;;;17.40;99.90;;;;;;5071329;28;20759;-61
2023/08/05 01:16:27;;;;;;;2.90;2.70;;;17.40;99.90;;;;;;5073324;28;20198;-62
2023/08/05 01:18:55;;;;;;;4.90;2.97;;;17.40;99.90;;;;;;5063534;28;20202;-61
2023/08/05 01:21:36;;;;;;;4.30;3.80;;;17.40;99.90;;;;;;5081029;28;20273;-62
2023/08/05 01:24:14;;;;;;;3.53;2.70;;;17.30;99.90;;;;;;5074529;28;20190;-61
2023/08/05 01:26:40;;;;;;;3.23;2.93;;;17.20;99.90;;;;;;5066768;28;20185;-62
2023/08/05 01:29:06;;;;;;;4.50;3.17;;;17.20;99.90;;;;;;5069945;28;20230;-62
2023/08/05 01:31:32;;;;;;;3.47;2.40;;;17.20;99.90;;;;;;5070518;28;20185;-62
2023/08/05 01:33:58;;;;;;;6.83;3.00;;;17.30;99.90;;;;;;5077903;28;20217;-61
2023/08/05 01:36:23;;;;;;;4.17;2.83;;;17.30;99.90;;;;;;5084503;28;20188;-61
2023/08/05 01:38:49;;;;;;;2.70;2.50;;;17.30;99.90;;;;;;5082706;28;20549;-60
2023/08/05 01:41:15;;;;;;;3.83;2.80;;;17.30;99.90;;;;;;5084277;28;20181;-61
2023/08/05 01:43:41;;;;;;;5.00;2.87;;;17.20;99.90;;;;;;5079384;28;20271;-59
2023/08/05 01:46:07;;;;;;;5.50;2.53;;;17.10;99.90;;;;;;5079873;28;20238;-60
2023/08/05 01:48:33;;;;;;;3.93;2.60;;;17.10;99.90;;;;;;5051360;28;20266;-59
2023/08/05 01:50:58;;;;;;;5.20;2.77;;;17.10;99.90;;;;;;5084641;28;20208;-60
2023/08/05 01:53:23;;;;;;;3.07;2.80;;;16.90;99.90;;;;;;5084034;28;20663;-60
2023/08/05 01:55:49;;;;;;;5.30;2.80;;;16.80;99.90;;;;;;5082451;28;20224;-59
2023/08/05 01:58:14;;;;;;;3.40;3.07;;;16.80;99.90;;;;;;5084146;28;20200;-59
2023/08/05 02:00:40;;;;;;;3.57;2.60;;;16.50;99.90;;;;;;5059070;28;20582;-59
2023/08/05 02:03:05;;;;;;;3.97;3.13;;;16.20;99.90;;;;;;5083264;28;20193;-59
2023/08/05 02:05:31;;;;;;;3.27;3.03;;;16.00;99.90;;;;;;5082196;28;20268;-59
2023/08/05 02:07:57;;;;;;;3.93;2.90;;;15.90;99.90;;;;;;5084132;28;20552;-59
2023/08/05 02:10:22;;;;;;;5.87;2.70;;;15.90;99.90;;;;;;5054134;28;20201;-60
2023/08/05 02:12:48;;;;;;;3.40;3.10;;;15.80;99.90;;;;;;5074775;28;20186;-60
2023/08/05 02:15:13;;;;;;;4.90;3.33;;;15.80;99.90;;;;;;5081463;28;20231;-59
2023/08/05 02:17:39;;;;;;;5.83;2.90;;;15.80;99.90;;;;;;5076629;28;20723;-60
2023/08/05 02:20:05;;;;;;;3.10;2.87;;;15.80;99.90;;;;;;5056024;28;20194;-60
2023/08/05 02:22:30;;;;;;;3.50;2.53;;;15.80;99.90;;;;;;5065738;28;20682;-59
2023/08/05 02:24:56;;;;;;;4.77;3.47;;;15.80;99.90;;;;;;5082172;28;20197;-60
2023/08/05 02:27:21;;;;;;;2.93;2.63;;;15.80;99.90;;;;;;5081879;28;20188;-59
2023/08/05 02:29:47;;;;;;;3.23;2.93;;;15.80;99.90;;;;;;5064576;28;20664;-59
2023/08/05 02:32:12;;;;;;;2.90;2.70;;;15.70;99.90;;;;;;5081869;28;20258;-61
2023/08/05 02:34:38;;;;;;;3.90;3.00;;;15.60;99.90;;;;;;5084988;28;20213;-60
2023/08/05 02:37:04;;;;;;;5.53;2.90;;;15.60;99.90;;;;;;5070462;28;21234;-60
2023/08/05 02:39:29;;;;;;;4.40;2.83;;;15.50;99.90;;;;;;5065953;28;20239;-60
2023/08/05 02:41:54;;;;;;;3.40;3.10;;;15.40;99.90;;;;;;5068309;28;20194;-60
2023/08/05 02:44:20;;;;;;;3.13;2.83;;;15.30;99.90;;;;;;5059577;28;21007;-60
2023/08/05 02:46:45;;;;;;;3.20;2.80;;;15.30;99.90;;;;;;5079505;28;20193;-60
2023/08/05 02:49:11;;;;;;;6.63;3.33;;;15.30;99.90;;;;;;5083492;28;20162;-60
2023/08/05 02:51:37;;;;;;;3.03;2.73;;;15.30;99.90;;;;;;5065063;28;20196;-61
2023/08/05 02:54:02;;;;;;;4.77;3.40;;;15.30;99.90;;;;;;5061802;28;20868;-61
2023/08/05 02:56:29;;;;;;;3.50;3.20;;;15.20;99.90;;;;;;5047788;28;20751;-60
2023/08/05 02:58:54;;;;;;;4.93;3.13;;;15.20;99.90;;;;;;5068994;28;20313;-60
2023/08/05 03:01:19;;;;;;;3.93;3.63;;;15.20;99.90;;;;;;5073299;28;20301;-57
2023/08/05 03:03:45;;;;;;;4.23;3.57;;;15.30;99.90;;;;;;5080402;28;20202;-62
2023/08/05 03:06:10;;;;;;;7.47;3.77;;;15.30;99.90;;;;;;5070518;28;20233;-58
2023/08/05 03:08:36;;;;;;;3.33;3.03;;;15.30;99.90;;;;;;5062068;28;20202;-58
2023/08/05 03:11:02;;;;;;;4.50;3.17;;;15.20;99.90;;;;;;5082880;28;20994;-55
2023/08/05 03:13:28;;;;;;;4.30;3.90;;;15.30;99.90;;;;;;5055262;28;20197;-55
2023/08/05 03:15:53;;;;;;;3.27;2.97;;;15.40;99.90;;;;;;5081917;28;20710;-56
2023/08/05 03:18:20;;;;;;;3.60;2.97;;;15.50;99.90;;;;;;5080820;28;20213;-56
2023/08/05 03:20:47;;;;;;;6.60;3.57;;;15.60;99.90;;;;;;5082782;28;20199;-56
2023/08/05 03:23:12;;;;;;;5.73;3.30;;;15.60;99.90;;;;;;5073728;28;20201;-55
2023/08/05 03:25:37;;;;;;;3.20;3.00;;;15.60;99.90;;;;;;5071263;28;20299;-56
2023/08/05 03:28:03;;;;;;;3.30;3.10;;;15.60;99.90;;;;;;5071415;28;20226;-59
2023/08/05 03:30:29;;;;;;;4.03;3.27;;;15.60;99.90;;;;;;5071427;28;20255;-58
2023/08/05 03:32:54;;;;;;;6.40;3.50;;;15.60;99.90;;;;;;5058044;28;20196;-56
2023/08/05 03:35:20;;;;;;;3.67;3.33;;;15.60;99.90;;;;;;5081573;28;20213;-58
2023/08/05 03:37:45;;;;;;;4.83;3.73;;;15.60;99.90;;;;;;5080318;28;20706;-57
2023/08/05 03:40:12;;;;;;;3.80;2.93;;;15.60;99.90;;;;;;5069586;28;20289;-59
2023/08/05 03:42:38;;;;;;;8.60;3.70;;;15.70;99.90;;;;;;5078966;28;20206;-58
2023/08/05 03:45:04;;;;;;;3.87;3.53;;;15.70;99.90;;;;;;5078644;28;20963;-58
2023/08/05 03:47:31;;;;;;;2.80;2.60;;;15.70;99.90;;;;;;5079515;28;20293;-59
2023/08/05 03:49:56;;;;;;;6.00;2.83;;;15.70;99.90;;;;;;5082420;28;20169;-58
2023/08/05 03:52:24;;;;;;;4.53;3.10;;;15.70;99.90;;;;;;5080476;28;20280;-58
2023/08/05 03:54:49;;;;;;;4.37;3.13;;;15.80;99.90;;;;;;5082242;28;20244;-58
2023/08/05 03:57:15;;;;;;;5.13;3.17;;;15.80;99.90;;;;;;5079753;28;20504;-58
2023/08/05 03:59:40;;;;;;;8.50;3.87;;;15.80;99.90;;;;;;5082439;28;20259;-58
2023/08/05 04:02:07;;;;;;;3.70;3.00;;;15.80;99.90;;;;;;5079688;28;20229;-58
2023/08/05 04:04:32;;;;;;;5.10;3.20;;;15.80;99.90;;;;;;5082071;28;20281;-58
2023/08/05 04:06:58;;;;;;;5.47;3.23;;;15.80;99.90;;;;;;5079738;28;20273;-58
2023/08/05 04:09:24;;;;;;;6.43;3.47;;;15.80;99.90;;;;;;5082146;28;20647;-58
2023/08/05 04:11:49;;;;;;;6.00;3.60;;;15.80;99.90;;;;;;5051683;28;20221;-60
2023/08/05 04:14:17;;;;;;;4.73;3.37;;;15.80;99.90;;;;;;5082194;28;20342;-60
2023/08/05 04:16:42;;;;;;;4.93;3.80;;;15.90;99.90;;;;;;5081398;28;20192;-60
2023/08/05 04:19:08;;;;;;;7.43;4.27;;;15.90;99.90;;;;;;5080092;28;20221;-61
2023/08/05 04:21:40;;;;;;;5.90;3.87;;;15.90;99.90;;;;;;5070316;28;20247;-60
2023/08/05 04:24:09;;;;;;;5.83;3.47;;;15.90;99.90;;;;;;5078988;28;20743;-58
2023/08/05 04:26:35;;;;;;;5.43;3.53;;;15.90;99.90;;;;;;5077925;28;20632;-58
2023/08/05 04:29:01;;;;;;;4.10;3.70;;;15.80;99.90;;;;;;5060366;28;20391;-58
2023/08/05 04:31:27;;;;;;;5.77;3.30;;;15.70;99.90;;;;;;5059860;28;20198;-60
2023/08/05 04:33:52;;;;;;;4.23;3.73;;;15.80;99.90;;;;;;5078582;28;20213;-59
2023/08/05 04:36:18;;;;;;;4.23;3.70;;;15.80;99.90;;;;;;5070967;28;20189;-58
2023/08/05 04:38:43;;;;;;;5.77;4.13;;;15.70;99.90;;;;;;5078827;28;20558;-58
2023/08/05 04:41:09;;;;;;;6.77;3.83;;;15.70;99.90;;;;;;5054720;28;20197;-57
2023/08/05 04:43:34;;;;;;;5.60;3.87;;;15.70;99.90;;;;;;5071888;28;20230;-58
2023/08/05 04:46:00;;;;;;;7.47;3.37;;;15.70;99.90;;;;;;5077096;28;20228;-58
2023/08/05 04:48:25;;;;;;;5.47;3.53;;;15.80;99.90;;;;;;5055517;28;20286;-56
2023/08/05 04:50:51;;;;;;;3.63;3.33;;;15.90;99.90;;;;;;5062928;28;20209;-57
2023/08/05 04:53:17;;;;;;;4.33;3.43;;;15.90;99.90;;;;;;5076145;28;20216;-57
2023/08/05 04:55:43;;;;;;;4.53;3.10;;;15.90;99.90;;;;;;5080920;28;20197;-57
2023/08/05 04:58:08;;;;;;;4.47;3.37;;;16.10;99.90;;;;;;5050309;28;20199;-57
2023/08/05 05:00:34;;;;;;;5.03;3.30;;;16.10;99.90;;;;;;5062788;28;20770;-57
2023/08/05 05:03:00;;;;;;;6.47;3.67;;;16.10;99.90;;;;;;5051199;28;20224;-58
2023/08/05 05:05:25;;;;;;;5.07;3.40;;;16.10;99.90;;;;;;5076276;28;20201;-61
2023/08/05 05:07:51;;;;;;;6.83;3.30;;;16.20;99.90;;;;;;5068423;28;20747;-59
2023/08/05 05:10:17;;;;;;;6.40;4.40;;;16.20;99.90;;;;;;5082349;28;20280;-60
2023/08/05 05:12:42;;;;;;;3.67;2.67;;;16.40;99.90;;;;;;5074630;28;20224;-59
2023/08/05 05:15:08;;;;;;;6.27;3.27;;;16.40;99.90;;;;;;5057404;28;20773;-61
2023/08/05 05:17:34;;;;;;;4.93;3.43;;;16.50;99.90;;;;;;5080753;28;20301;-61
2023/08/05 05:20:01;;;;;;;9.10;3.93;;;16.60;99.90;;;;;;5083643;28;20178;-58
2023/08/05 05:22:27;;;;;;;6.50;3.73;;;16.70;99.90;;;;;;5074590;28;20190;-59
2023/08/05 05:24:52;;;;;;;5.47;3.20;;;16.70;99.90;;;;;;5063317;28;20226;-58
2023/08/05 05:27:18;;;;;;;5.43;3.43;;;16.80;99.90;;;;;;5080718;28;20663;-57
2023/08/05 05:29:44;;;;;;;4.67;3.83;;;16.80;99.90;;;;;;5061601;28;20232;-57
2023/08/05 05:32:10;;;;;;;5.80;3.87;;;16.70;99.90;;;;;;5060785;28;20209;-57
2023/08/05 05:34:35;;;;;;;3.50;3.03;;;16.70;99.90;;;;;;5085284;28;20217;-59
2023/08/05 05:37:01;;;;;;;4.97;2.90;;;16.80;99.90;;;;;;5079356;28;20201;-62
2023/08/05 05:39:27;;;;;;;5.73;3.57;;;16.60;99.90;;;;;;5080507;28;20193;-63
2023/08/05 05:41:52;;;;;;;5.47;3.60;;;16.70;99.90;;;;;;5077198;28;20182;-64
2023/08/05 05:44:18;;;;;;;4.87;3.50;;;16.70;99.90;;;;;;5061856;28;20189;-62
2023/08/05 05:46:44;;;;;;;7.60;3.17;;;16.80;99.90;;;;;;5081576;28;20186;-60
2023/08/05 05:49:10;;;;;;;8.50;3.77;;;16.60;99.90;;;;;;5081085;28;20182;-64
2023/08/05 05:51:35;;;;;;;4.87;3.23;;;16.40;99.90;;;;;;5079550;28;20246;-56
2023/08/05 05:54:02;;;;;;;4.50;3.67;;;16.40;99.90;;;;;;5076287;28;20217;-58
2023/08/05 05:56:28;;;;;;;5.23;3.07;;;16.40;99.90;;;;;;5080622;28;20185;-60
2023/08/05 05:58:54;;;;;;;9.23;3.57;;;16.60;99.90;;;;;;5077716;28;20201;-64
2023/08/05 06:01:20;;;;;;;5.40;3.43;;;16.30;99.90;;;;;;5060072;28;20231;-60
2023/08/05 06:03:46;;;;;;;6.53;3.80;;;16.50;99.90;;;;;;5079536;28;20236;-63
2023/08/05 06:06:12;;;;;;;4.77;3.40;;;16.60;99.90;;;;;;5063487;28;20232;-68
2023/08/05 06:08:38;;;;;;;6.83;3.00;;;16.70;99.90;;;;;;5078542;28;20200;-67
2023/08/05 06:11:04;;;;;;;8.67;3.53;;;16.80;99.90;;;;;;5063666;28;20220;-68
2023/08/05 06:13:30;;;;;;;3.97;2.73;;;16.80;99.90;;;;;;5077174;28;20201;-68
2023/08/05 06:15:56;;;;;;;4.13;2.93;;;16.60;99.90;;;;;;5084163;28;20197;-68
2023/08/05 06:18:21;;;;;;;6.43;3.23;;;16.50;99.90;;;;;;5076156;28;20213;-70
2023/08/05 06:20:48;;;;;;;5.83;3.20;;;16.80;99.90;;;;;;5077521;28;20193;-70
2023/08/05 06:23:14;;;;;;;3.50;3.20;;;17.00;99.90;;;;;;5074186;28;20617;-74
2023/08/05 06:25:40;;;;;;;5.37;3.17;;;17.00;99.90;;;;;;5079613;28;20311;-65
2023/08/05 06:28:05;;;;;;;5.10;3.57;;;16.80;99.90;;;;;;5079213;28;20217;-64
2023/08/05 06:30:31;;;;;;;7.50;3.53;;;16.70;99.90;;;;;;5081497;28;20654;-61
2023/08/05 06:32:56;;;;;;;4.37;3.60;;;16.60;99.90;;;;;;5077319;28;20628;-61
2023/08/05 06:35:22;;;;;;;5.00;3.03;;;16.80;99.90;;;;;;5061944;28;20558;-73
2023/08/05 06:37:47;;;;;;;4.00;2.80;;;17.00;99.90;;;;;;5077509;28;20212;-60
2023/08/05 06:40:13;;;;;;;3.70;3.33;;;17.00;99.90;;;;;;5073144;28;21411;-59
2023/08/05 06:42:38;;;;;;;3.47;3.17;;;17.20;99.90;;;;;;5078521;28;20197;-59
2023/08/05 06:45:05;;;;;;;6.40;3.10;;;17.30;99.90;;;;;;5077889;28;20193;-60
2023/08/05 06:47:31;;;;;;;4.10;2.73;;;17.40;99.90;;;;;;5078633;28;20225;-61
2023/08/05 06:50:02;;;;;;;9.67;2.70;;;17.50;99.90;;;;;;5063484;28;20199;-67
2023/08/05 06:52:28;;;;;;;3.10;2.57;;;17.70;99.90;;;;;;5069329;28;20754;-68
2023/08/05 06:54:55;;;;;;;3.33;3.00;;;17.60;99.90;;;;;;5082392;28;20298;-72
2023/08/05 06:57:21;;;;;;;4.37;3.03;;;17.50;99.90;;;;;;5058220;28;20189;-60
2023/08/05 06:59:46;;;;;;;7.40;3.03;;;17.40;99.90;;;;;;5064288;28;20203;-64
2023/08/05 07:02:12;;;;;;;5.50;2.57;;;17.50;99.90;;;;;;5078585;28;20203;-62
2023/08/05 07:04:37;;;;;;;6.37;2.90;;;17.70;99.90;;;;;;5080361;28;20170;-65
2023/08/05 07:07:03;;;;;;;2.80;2.60;;;17.90;99.90;;;;;;5079702;28;20385;-70
2023/08/05 07:09:29;;;;;;;4.17;2.80;;;17.90;99.90;;;;;;5079696;28;20182;-63
2023/08/05 07:11:54;;;;;;;3.87;2.63;;;17.80;99.90;;;;;;5078915;28;20199;-63
2023/08/05 07:14:20;;;;;;;4.57;2.67;;;17.70;99.90;;;;;;5080001;28;20589;-66
2023/08/05 07:16:46;;;;;;;4.60;2.83;;;17.80;99.90;;;;;;5077968;28;20185;-69
2023/08/05 07:19:11;;;;;;;3.23;2.77;;;17.80;99.90;;;;;;5074215;28;20213;-68
2023/08/05 07:21:37;;;;;;;3.67;3.23;;;18.10;99.90;;;;;;5065777;28;20277;-67
2023/08/05 07:24:02;;;;;;;6.07;4.10;;;18.30;99.90;;;;;;5079696;28;20577;-68
2023/08/05 07:26:28;;;;;;;4.50;3.47;;;18.00;99.90;;;;;;5083087;28;20675;-68
2023/08/05 07:28:53;;;;;;;7.13;2.73;;;18.00;99.90;;;;;;5060850;28;20222;-68
2023/08/05 07:31:19;;;;;;;4.83;2.97;;;17.90;99.90;;;;;;5081694;28;20225;-68
2023/08/05 07:33:46;;;;;;;5.57;3.50;;;18.10;99.90;;;;;;5079678;28;20696;-68
2023/08/05 07:36:13;;;;;;;4.87;2.70;;;18.40;99.90;;;;;;5062823;28;20188;-67
2023/08/05 07:38:44;;;;;;;4.27;2.67;;;18.30;99.90;;;;;;5054533;28;20367;-68
2023/08/05 07:41:13;;;;;;;5.03;2.60;;;18.40;99.90;;;;;;5074206;28;20191;-67
2023/08/05 07:43:39;;;;;;;3.73;2.17;;;18.50;99.90;;;;;;5056696;28;20189;-63
2023/08/05 07:46:06;;;;;;;6.77;3.17;;;18.60;99.90;;;;;;5076226;28;20199;-63
2023/08/05 07:48:37;;;;;;;8.33;2.93;;;18.70;99.90;;;;;;5060365;28;20198;-61
2023/08/05 07:51:06;;;;;;;8.50;2.90;;;18.70;99.90;;;;;;5081652;28;20183;-61
2023/08/05 07:53:38;;;;;;;5.53;3.13;;;18.70;99.90;;;;;;5061166;28;20195;-59
2023/08/05 07:56:10;;;;;;;7.27;3.33;;;18.80;99.90;;;;;;5077612;28;20236;-63
2023/08/05 07:58:39;;;;;;;9.03;2.97;;;18.90;99.90;;;;;;5077551;28;20897;-58
2023/08/05 08:01:05;;;;;;;8.20;3.00;;;18.80;99.90;;;;;;5053724;28;20225;-58
2023/08/05 08:03:31;;;;;;;5.47;3.17;;;18.40;99.90;;;;;;5058073;28;20623;-59
2023/08/05 08:05:57;;;;;;;5.50;2.90;;;18.50;99.90;;;;;;5080398;28;20202;-59
2023/08/05 08:08:23;;;;;;;3.57;2.73;;;18.70;99.90;;;;;;5053110;28;20212;-73
2023/08/05 08:10:48;;;;;;;3.30;3.00;;;18.70;99.90;;;;;;5080960;28;20694;-61
2023/08/05 08:13:14;;;;;;;5.57;2.87;;;18.80;99.90;;;;;;5079102;28;20208;-60
2023/08/05 08:15:39;;;;;;;4.20;3.30;;;18.70;99.90;;;;;;5080481;28;20236;-59
2023/08/05 08:18:05;;;;;;;4.00;3.03;;;19.00;99.90;;;;;;5076540;28;20202;-71
2023/08/05 08:20:30;;;;;;;6.60;3.47;;;19.10;99.90;;;;;;5060054;28;20404;-71
2023/08/05 08:22:56;;;;;;;4.60;3.50;;;19.20;99.90;;;;;;5075622;28;20263;-63
2023/08/05 08:25:21;;;;;;;3.33;3.03;;;19.10;99.90;;;;;;5079851;28;20289;-71
2023/08/05 08:27:47;;;;;;;4.17;2.70;;;19.30;99.90;;;;;;5068574;28;20226;-72
2023/08/05 08:30:12;;;;;;;3.63;2.83;;;19.00;99.90;;;;;;5081355;28;20285;-64
2023/08/05 08:32:38;;;;;;;8.00;3.03;;;19.00;99.90;;;;;;5079388;28;20241;-72
2023/08/05 08:35:04;;;;;;;4.93;3.00;;;19.20;99.90;;;;;;5081174;28;20747;-67
2023/08/05 08:37:30;;;;;;;5.50;2.97;;;19.00;99.90;;;;;;5045594;28;21003;-68
2023/08/05 08:39:55;;;;;;;5.93;2.83;;;19.00;99.90;;;;;;5042311;28;20769;-69
2023/08/05 08:42:21;;;;;;;4.30;2.63;;;19.00;99.90;;;;;;5078009;28;20216;-69
2023/08/05 08:44:48;;;;;;;5.60;3.67;;;19.40;99.90;;;;;;5058699;28;20197;-72
2023/08/05 08:47:16;;;;;;;2.63;2.43;;;19.40;99.90;;;;;;5067413;28;20200;-68
2023/08/05 08:49:43;;;;;;;5.73;2.67;;;19.50;99.90;;;;;;5080743;28;20182;-74
2023/08/05 08:52:10;;;;;;;3.90;2.40;;;19.40;99.90;;;;;;5078171;28;20204;-65
2023/08/05 08:54:37;;;;;;;4.77;2.70;;;19.60;99.90;;;;;;5083568;28;20205;-69
2023/08/05 08:57:02;;;;;;;2.90;2.50;;;19.70;99.90;;;;;;5072921;28;20196;-67
2023/08/05 08:59:28;;;;;;;4.13;3.07;;;19.60;99.90;;;;;;5081155;28;20172;-60
2023/08/05 09:01:54;;;;;;;3.00;2.67;;;19.40;99.90;;;;;;5061164;28;20196;-70
2023/08/05 09:04:22;;;;;;;4.43;2.77;;;19.50;99.90;;;;;;5083227;28;20204;-66
2023/08/05 09:06:49;;;;;;;2.93;2.20;;;19.70;99.90;;;;;;5058866;28;20180;-67
2023/08/05 09:09:14;;;;;;;2.90;2.60;;;19.80;99.90;;;;;;5081855;28;20191;-64
2023/08/05 09:11:40;;;;;;;3.77;2.70;;;19.70;99.90;;;;;;5065119;28;20223;-66
2023/08/05 09:14:05;;;;;;;4.83;2.50;;;19.70;99.90;;;;;;5050929;28;20274;-71
2023/08/05 09:16:31;;;;;;;3.93;2.53;;;19.60;99.90;;;;;;5063252;28;20601;-76
2023/08/05 09:18:57;;;;;;;3.30;2.70;;;19.40;99.90;;;;;;5060583;28;20219;-72
2023/08/05 09:21:26;;;;;;;4.13;2.33;;;19.40;99.90;;;;;;5061722;28;20237;-65
2023/08/05 09:23:56;;;;;;;3.60;2.43;;;19.50;99.90;;;;;;5078469;28;20202;-75
2023/08/05 09:26:29;;;;;;;3.93;2.77;;;19.70;99.90;;;;;;5080907;28;20216;-70
2023/08/05 09:28:56;;;;;;;4.50;2.63;;;19.40;99.90;;;;;;5079988;28;20223;-68
2023/08/05 09:31:22;;;;;;;5.40;2.43;;;19.50;99.90;;;;;;5080905;28;20732;-69
2023/08/05 09:33:47;;;;;;;6.33;3.03;;;19.60;99.90;;;;;;5073493;28;20300;-70
2023/08/05 09:36:14;;;;;;;4.73;2.33;;;19.70;99.90;;;;;;5077061;28;20292;-69
2023/08/05 09:38:40;;;;;;;4.73;2.77;;;19.70;99.90;;;;;;5060808;28;20277;-68
2023/08/05 09:41:07;;;;;;;4.47;2.57;;;19.90;99.90;;;;;;5086305;23;20577;-68
2023/08/05 09:43:40;;;;;;;2.77;2.23;;;19.90;99.90;;;;;;5068785;28;20570;-69
2023/08/05 09:46:11;;;;;;;4.60;2.73;;;19.80;99.90;;;;;;5075278;28;20199;-69
2023/08/05 09:48:43;;;;;;;5.13;4.03;;;19.80;99.90;;;;;;5097536;22;20650;-68
2023/08/05 09:51:15;;;;;;;3.00;2.40;;;19.90;99.90;;;;;;5082517;28;20405;-68
2023/08/05 09:53:41;;;;;;;5.57;2.43;;;20.10;99.90;;;;;;5082466;28;20233;-69
2023/08/05 09:56:07;;;;;;;4.30;2.50;;;20.30;99.90;;;;;;5080935;28;20531;-69
2023/08/05 09:58:37;;;;;;;3.07;2.77;;;20.40;99.90;;;;;;5105424;28;20196;-69
2023/08/05 10:01:07;;;;;;;4.47;2.60;;;20.50;99.90;;;;;;5077105;28;20249;-69
2023/08/05 10:03:37;;;;;;;3.53;2.47;;;20.60;99.90;;;;;;5106599;28;20592;-69
2023/08/05 10:06:05;;;;;;;4.77;2.40;;;20.70;99.90;;;;;;5085327;28;20204;-69
2023/08/05 10:08:32;;;;;;;3.97;2.40;;;20.80;99.90;;;;;;5105608;28;20662;-69
2023/08/05 10:10:59;;;;;;;2.30;2.10;;;20.90;99.90;;;;;;5085078;28;20200;-69
2023/08/05 10:13:26;;;;;;;5.73;2.03;;;20.80;99.90;;;;;;5104831;28;20186;-69
2023/08/05 10:15:53;;;;;;;3.07;2.73;;;21.10;99.90;;;;;;5102888;28;20235;-69
2023/08/05 10:18:20;;;;;;;2.43;2.20;;;21.20;99.90;;;;;;5105427;28;20915;-69
2023/08/05 10:20:53;;;;;;;3.50;2.23;;;21.00;99.90;;;;;;5103026;28;20687;-69
2023/08/05 10:23:19;;;;;;;4.47;2.40;;;21.00;99.90;;;;;;5105437;28;20180;-69
2023/08/05 10:25:49;;;;;;;2.17;1.97;;;21.10;99.90;;;;;;5089894;28;20211;-70
2023/08/05 10:28:23;;;;;;;5.07;2.30;;;21.00;99.90;;;;;;5106335;28;20187;-68
2023/08/05 10:30:49;;;;;;;3.30;2.43;;;21.10;99.90;;;;;;5103669;28;20985;-69
2023/08/05 10:33:18;;;;;;;2.40;2.20;;;21.10;99.90;;;;;;5087867;28;20541;-69
2023/08/05 10:35:44;;;;;;;4.77;2.77;;;21.30;99.90;;;;;;5084956;28;20264;-69
2023/08/05 10:38:16;;;;;;;2.10;1.90;;;21.20;99.90;;;;;;5070721;28;20185;-69
2023/08/05 10:40:55;;;;;;;3.17;2.40;;;21.30;99.90;;;;;;5101598;28;20198;-68
2023/08/05 10:43:33;;;;;;;5.53;2.80;;;21.40;99.90;;;;;;5103560;28;20320;-67
2023/08/05 10:46:07;;;;;;;4.00;2.63;;;21.50;99.90;;;;;;5091925;28;20733;-69
2023/08/05 10:48:38;;;;;;;3.37;2.57;;;21.60;99.90;;;;;;5118484;27;20242;-69
2023/08/05 10:51:14;;;;;;;3.00;1.90;;;21.60;99.90;;;;;;5114638;27;20284;-71
2023/08/05 10:53:43;;;;;;;2.20;2.00;;;21.60;99.90;;;;;;5078931;28;20196;-70
2023/08/05 10:56:12;;;;;;;6.43;2.43;;;21.60;99.90;;;;;;5117053;27;20230;-69
2023/08/05 10:58:51;;;;;;;5.43;2.20;;;21.80;99.90;;;;;;5116897;27;20279;-69
2023/08/05 11:01:18;;;;;;;1.90;1.80;;;21.60;99.90;;;;;;5095750;28;20868;-70
2023/08/05 11:03:52;;;;;;;5.63;2.97;;;21.30;99.90;;;;;;5106826;27;20229;-70
2023/08/05 11:06:23;;;;;;;3.33;2.47;;;21.20;99.90;;;;;;5092639;28;20196;-70
2023/08/05 11:08:48;;;;;;;3.70;2.17;;;21.20;99.90;;;;;;5119154;27;20210;-69
2023/08/05 11:11:14;;;;;;;2.30;2.10;;;21.20;99.90;;;;;;5111505;27;20556;-70
2023/08/05 11:13:42;;;;;;;4.00;2.00;;;21.40;99.90;;;;;;5123956;27;20188;-70
2023/08/05 11:16:14;;;;;;;3.03;2.53;;;21.20;99.90;;;;;;5102157;27;20223;-70
2023/08/05 11:18:42;;;;;;;3.30;2.10;;;21.20;99.90;;;;;;5112497;27;20205;-70
2023/08/05 11:21:10;;;;;;;3.57;2.80;;;21.30;99.90;;;;;;5112557;27;20715;-70
2023/08/05 11:23:37;;;;;;;3.87;2.23;;;21.50;99.90;;;;;;5108132;27;20239;-70
2023/08/05 11:26:02;;;;;;;3.27;2.30;;;21.40;99.90;;;;;;5096711;27;20194;-70
2023/08/05 11:28:29;;;;;;;3.20;2.10;;;21.70;99.90;;;;;;5104620;27;20308;-71
2023/08/05 11:30:55;;;;;;;2.30;1.83;;;21.90;99.90;;;;;;5114078;27;20201;-70
2023/08/05 11:33:21;;;;;;;3.17;2.10;;;21.80;99.90;;;;;;5094385;28;20666;-70
2023/08/05 11:35:48;;;;;;;4.75;2.05;;;22.00;99.90;;;;;;5118855;27;20561;-70
2023/08/05 11:38:20;;;;;;;2.10;1.90;;;21.90;99.90;;;;;;5111498;27;20172;-69
2023/08/05 11:40:54;;;;;;;3.83;2.00;;;21.80;99.90;;;;;;5104215;27;20263;-70
2023/08/05 11:43:21;;;;;;;1.97;1.80;;;21.80;99.90;;;;;;5110862;27;20235;-67
2023/08/05 11:45:48;;;;;;;3.47;2.30;;;21.80;99.90;;;;;;5100265;28;20197;-69
2023/08/05 11:48:27;;;;;;;5.07;2.40;;;21.70;99.90;;;;;;5114851;27;20223;-70
2023/08/05 11:51:05;;;;;;;4.80;2.00;;;21.60;99.90;;;;;;5090755;27;20203;-70
2023/08/05 11:53:31;;;;;;;2.27;2.07;;;21.80;99.90;;;;;;5113567;27;20293;-70
2023/08/05 11:55:56;;;;;;;2.90;2.60;;;21.90;99.90;;;;;;5104340;27;20371;-70
2023/08/05 11:58:26;;;;;;;2.30;1.98;;;21.70;99.90;;;;;;5110986;27;20261;-69
2023/08/05 12:00:57;;;;;;;2.80;2.13;;;22.00;99.90;;;;;;5083509;28;20698;-70
2023/08/05 12:03:29;;;;;;;3.75;2.28;;;22.30;99.90;;;;;;5101248;27;20200;-68
2023/08/05 12:06:00;;;;;;;5.07;2.25;;;22.50;99.90;;;;;;5102015;28;20180;-68
2023/08/05 12:08:38;;;;;;;6.63;2.40;;;22.30;99.90;;;;;;5102288;27;20692;-69
2023/08/05 12:11:03;;;;;;;3.30;2.23;;;22.40;99.90;;;;;;5101101;27;20280;-69
2023/08/05 12:13:32;;;;;;;5.20;2.13;;;22.50;99.90;;;;;;5103443;27;20735;-70
2023/08/05 12:15:58;;;;;;;3.90;2.30;;;22.60;99.90;;;;;;5108766;27;20280;-70
2023/08/05 12:18:23;;;;;;;3.15;1.92;;;22.30;99.90;;;;;;5107623;27;20685;-64
2023/08/05 12:20:49;;;;;;;3.83;2.60;;;22.30;99.90;;;;;;5103034;27;20398;-70
2023/08/05 12:23:14;;;;;;;3.83;2.17;;;22.50;99.90;;;;;;5103476;27;20618;-69
2023/08/05 12:25:39;;;;;;;2.75;1.92;;;22.90;99.90;;;;;;5120844;27;20201;-71
2023/08/05 12:28:05;;;;;;;5.63;2.58;;;23.20;99.90;;;;;;5084828;28;20193;-62
2023/08/05 12:30:30;;;;;;;3.60;1.90;;;22.70;99.90;;;;;;5100621;27;20223;-69
2023/08/05 12:32:58;;;;;;;3.53;2.30;;;22.40;99.90;;;;;;5098688;27;20191;-64
2023/08/05 12:35:24;;;;;;;3.08;2.30;;;22.40;99.90;;;;;;5113351;27;20712;-64
2023/08/05 12:37:50;;;;;;;6.40;2.38;;;22.30;99.90;;;;;;5102151;28;20180;-63
2023/08/05 12:40:15;;;;;;;3.75;2.30;;;22.30;99.90;;;;;;5114197;27;20201;-62
2023/08/05 12:42:41;;;;;;;3.65;2.00;;;22.30;99.90;;;;;;5108214;27;20191;-61
2023/08/05 12:45:08;;;;;;;3.80;2.00;;;22.30;99.90;;;;;;5100671;27;20196;-66